WetterOnline ( http://www.wetteronline.de )

Wetter aktuell Greifswalder Bodden

Aktuelles Wetter: Greifswalder Oie (12m)

6-stündlich | Neueste Meldungen
Ortszeit Temperatur Wetter
Fr, 22.06. 8:00 12.0° C leicht bewölkt
Fr, 22.06. 2:00 12.4° C wolkenlos
Do, 21.06. 20:00 13.2° C wolkig
Do, 21.06. 14:00 13.5° C leichter Regen
Do, 21.06. 8:00 18.8° C leicht bewölkt
Do, 21.06. 2:00 19.1° C fast wolkenlos
Mi, 20.06. 20:00 22.3° C fast wolkenlos
Mi, 20.06. 14:00 22.2° C wolkig
Ortszeit Temperatur Wetter
Fr, 22.06. 12:30 15.7° C wolkig
Fr, 22.06. 12:20 15.7° C wolkig
Fr, 22.06. 12:10 15.5° C wolkig
Fr, 22.06. 12:00 15.3° C leicht bewölkt
Fr, 22.06. 11:50 15.3° C leicht bewölkt
Fr, 22.06. 11:40 15.0° C bewölkt
Fr, 22.06. 11:30 14.4° C bedeckt
Fr, 22.06. 11:00 14.4° C bedeckt
Fr, 22.06. 10:30 14.0° C bewölkt
Fr, 22.06. 10:00 13.6° C bewölkt
Fr, 22.06. 9:30 13.0° C bewölkt
Ortszeit Relative Feuchte Sichtweite
Fr, 22.06. 8:00 86% 8 km
Fr, 22.06. 2:00 82% 20 km
Do, 21.06. 20:00 80% 18 km
Do, 21.06. 14:00 89% 9 km
Do, 21.06. 8:00 82% 6 km
Do, 21.06. 2:00 84% 11 km
Mi, 20.06. 20:00 71% 19 km
Mi, 20.06. 14:00 67% 13 km
Ortszeit Relative Feuchte Sichtweite
Fr, 22.06. 12:30 65% 5.0 km
Fr, 22.06. 12:20 65% -
Fr, 22.06. 12:10 67% -
Fr, 22.06. 12:00 65% 8 km
Fr, 22.06. 11:50 65% -
Fr, 22.06. 11:40 66% -
Fr, 22.06. 11:30 70% 9 km
Fr, 22.06. 11:00 70% 14 km
Fr, 22.06. 10:30 76% 14 km
Fr, 22.06. 10:00 77% 5.0 km
Fr, 22.06. 9:30 81% 9 km
Ortszeit Niederschlagsmenge Niederschlagsart
Fr, 22.06. 8:00 0.4 l/m2 in 12 Std. Regen
Fr, 22.06. 2:00 0.1 l/m2 in 6 Std. Regen
Do, 21.06. 20:00 9 l/m2 in 12 Std. Regen
Do, 21.06. 14:00 6 l/m2 in 6 Std. Regen
Do, 21.06. 8:00 0.0 l/m2 in 12 Std. -
Do, 21.06. 2:00 0.1 l/m2 in 6 Std. -
Mi, 20.06. 20:00 0.0 l/m2 in 12 Std. -
Mi, 20.06. 14:00 0.0 l/m2 in 6 Std. -
Ortszeit Niederschlagsmenge Niederschlagsart
Fr, 22.06. 12:30 0.0 l/m2 in 1 Std. -
Fr, 22.06. 12:20 keine Meldung -
Fr, 22.06. 12:10 keine Meldung -
Fr, 22.06. 12:00 0.0 l/m2 in 1 Std. -
Fr, 22.06. 11:50 keine Meldung -
Fr, 22.06. 11:40 keine Meldung -
Fr, 22.06. 11:30 0.0 l/m2 in 1 Std. -
Fr, 22.06. 11:00 0.1 l/m2 in 1 Std. Regen
Fr, 22.06. 10:30 0.1 l/m2 in 1 Std. Schneeregen
Fr, 22.06. 10:00 0.1 l/m2 in 1 Std. Regen
Fr, 22.06. 9:30 0.0 l/m2 in 1 Std. -
Ortszeit Stärke Spitze Richtung
km/h Bft. km/h Grad Sektor
Fr, 22.06. 8:00 50 7 76 250° W
Fr, 22.06. 2:00 56 7 72 250° W
Do, 21.06. 20:00 54 7 86 270° W
Do, 21.06. 14:00 37 5 59 260° W
Do, 21.06. 8:00 22 4 32 230° SW
Do, 21.06. 2:00 18 3 29 280° W
Mi, 20.06. 20:00 18 3 43 230° SW
Mi, 20.06. 14:00 20 4 31 250° W
Ortszeit Stärke Spitze Richtung
km/h Bft. km/h Grad Sektor
Fr, 22.06. 12:30 40 6 47 290° W
Fr, 22.06. 12:20 40 6 - 290° W
Fr, 22.06. 12:10 39 6 - 290° W
Fr, 22.06. 12:00 43 6 54 290° W
Fr, 22.06. 11:50 43 6 - 290° W
Fr, 22.06. 11:40 41 6 - 290° W
Fr, 22.06. 11:30 43 6 54 290° W
Fr, 22.06. 11:00 44 6 54 280° W
Fr, 22.06. 10:30 41 6 54 270° W
Fr, 22.06. 10:00 44 6 57 280° W
Fr, 22.06. 9:30 47 6 58 270° W
Ortszeit Untergrenze Bedeckung Gattung
total tief tief mittel hoch
Fr, 22.06. 8:00 270 m 4/8 4/8 - - -
Fr, 22.06. 2:00 480 m 0/8 0/8 - - -
Do, 21.06. 20:00 570 m 6/8 6/8 - - -
Do, 21.06. 14:00 330 m 7/8 7/8 - - -
Do, 21.06. 8:00 330 m 4/8 3/8 - - -
Do, 21.06. 2:00 3000 m 1/8 1/8 - - -
Mi, 20.06. 20:00 1410 m 1/8 1/8 - - -
Mi, 20.06. 14:00 1410 m 6/8 - - - -
Ortszeit Bedeckungsgrad in Achtel und Wolkenuntergrenze
Fr, 22.06. 12:30 2(2700m) 5(5400m) 7(6300m)
Fr, 22.06. 12:20 2(2700m) 5(5400m) 7(6300m)
Fr, 22.06. 12:10 2(3000m) 5(6300m)
Fr, 22.06. 12:00 2(1800m) 4(5100m)
Fr, 22.06. 11:50 2(1800m) 4(5100m)
Fr, 22.06. 11:40 3(1500m) 5(2100m) 8(5100m)
Fr, 22.06. 11:30 1(990m) 7(1500m) 8(2100m)
Fr, 22.06. 11:00 2(690m) 7(2400m) 8(2700m)
Fr, 22.06. 10:30 4(570m) 7(2700m) 8(7500m)
Fr, 22.06. 10:00 3(510m) 4(1500m) 7(2700m)
Fr, 22.06. 9:30 5(420m) 7(600m) 7(840m)
Ortszeit Luftdruck NN (hPa) Tendenz (hPa in 3 Std.)
Fr, 22.06. 8:00 1011 + 0,5
Fr, 22.06. 2:00 1010 + 0,1
Do, 21.06. 20:00 1010 + 2,1
Do, 21.06. 14:00 1008 + 0,5
Do, 21.06. 8:00 1009 - 1,6
Do, 21.06. 2:00 1013 - 1,2
Mi, 20.06. 20:00 1015 - 2,0
Mi, 20.06. 14:00 1019 - 2,2
Ortszeit Luftdruck NN (hPa) Tendenz (hPa in 3 Std.)
Fr, 22.06. 12:30 1014 + 1,7
Fr, 22.06. 12:20 1014 keine Meldung
Fr, 22.06. 12:10 1013 keine Meldung
Fr, 22.06. 12:00 1013 + 1,7
Fr, 22.06. 11:50 1013 keine Meldung
Fr, 22.06. 11:40 1013 keine Meldung
Fr, 22.06. 11:30 1013 + 1,9
Fr, 22.06. 11:00 1013 + 1,9
Fr, 22.06. 10:30 1012 + 1,8
Fr, 22.06. 10:00 1012 + 1,8
Fr, 22.06. 9:30 1012 + 1,3
Ortszeit Schneehöhe (cm)
Fr, 22.06. 8:00 -
Fr, 22.06. 2:00 -
Do, 21.06. 20:00 -
Do, 21.06. 14:00 -
Do, 21.06. 8:00 -
Do, 21.06. 2:00 -
Mi, 20.06. 20:00 -
Mi, 20.06. 14:00 -
Ortszeit Schneehöhe (cm)
Fr, 22.06. 12:30 -
Fr, 22.06. 12:20 -
Fr, 22.06. 12:10 -
Fr, 22.06. 12:00 -
Fr, 22.06. 11:50 -
Fr, 22.06. 11:40 -
Fr, 22.06. 11:30 -
Fr, 22.06. 11:00 -
Fr, 22.06. 10:30 -
Fr, 22.06. 10:00 -
Fr, 22.06. 9:30 -
Link zu dieser Seite / Seite empfehlen

Das Wetter in ...